Terminal Aerodrome Forecast
Issued by NWS

Home | Current Version | Previous Version | Graphics & Text | Print | Product List | Glossary On
Versions: 1 2 3 4 5 6 7 8 9 10 11 12 13 14 15 16 17 18 19 20 21 22 23
000
FTUS43 KABR 241100
TAFATY
TAF
KATY 241125Z 2412/2512 34016G25KT P6SM -SN OVC015
      TEMPO 2412/2415 4SM -SN
     FM241800 33019G28KT P6SM SCT250
     FM250300 31008KT P6SM BKN150
     FM251000 VRB05KT P6SM OVC040=

USA.gov is the U.S. government's official web portal to all federal, state and local government web resources and services.